Time;durP1;ratioP1;P1;durP2;ratioP2;P2;SDS_P1;SDS_P2;PMS_P1;PMS_P2;Temp;Humidity;BMP_temperature;BMP_pressure;BME280_temperature;BME280_humidity;BME280_pressure;Samples;Min_cycle;Max_cycle;Signal;HPM_P1;HPM_P2
2022/02/14 00:03:04;;;;;;;140.57;45.13;;;;;;;-6.06;65.93;99238.13;4395730;79;21636;-83
2022/02/14 00:09:06;;;;;;;231.53;69.47;;;;;;;-6.16;67.46;99220.76;4397666;79;21018;-84
2022/02/14 00:15:10;;;;;;;125.60;47.03;;;;;;;-6.10;67.86;99226.38;4407554;79;21055;-83
2022/02/14 00:21:12;;;;;;;240.80;71.50;;;;;;;-6.07;68.59;99223.99;4388788;79;20984;-83
2022/02/14 00:27:14;;;;;;;216.87;68.30;;;;;;;-6.15;67.48;99217.05;4395642;79;21058;-83
2022/02/14 00:33:15;;;;;;;257.17;79.47;;;;;;;-6.21;68.24;99207.41;4404661;79;21048;-83
2022/02/14 00:39:17;;;;;;;243.80;76.00;;;;;;;-6.15;68.87;99211.72;4390047;79;21039;-83
2022/02/14 00:45:18;;;;;;;233.87;74.47;;;;;;;-6.14;68.81;99215.45;4395464;79;21557;-83
2022/02/14 00:51:19;;;;;;;202.67;66.50;;;;;;;-6.07;69.20;99209.86;4388488;78;21009;-84
2022/02/14 00:57:21;;;;;;;184.53;60.07;;;;;;;-6.10;68.90;99205.05;4394240;79;21665;-83
2022/02/14 01:03:22;;;;;;;152.87;47.87;;;;;;;-6.11;69.33;99181.62;4408394;79;21095;-83
2022/02/14 01:09:24;;;;;;;162.03;53.57;;;;;;;-6.17;69.31;99177.31;4403428;79;21436;-83
2022/02/14 01:15:25;;;;;;;148.60;52.97;;;;;;;-6.17;70.24;99175.98;4382321;79;20996;-83
2022/02/14 01:21:27;;;;;;;122.43;42.47;;;;;;;-6.07;70.68;99154.70;4388689;79;21501;-82
2022/02/14 01:27:28;;;;;;;133.50;45.00;;;;;;;-6.18;70.11;99153.08;4380543;79;21819;-82
2022/02/14 01:33:30;;;;;;;142.37;50.50;;;;;;;-6.18;70.36;99145.08;4392736;79;21565;-82
2022/02/14 01:39:31;;;;;;;110.83;39.43;;;;;;;-6.06;70.67;99136.86;4402257;78;21769;-82
2022/02/14 01:45:32;;;;;;;129.23;47.13;;;;;;;-6.13;70.42;99150.42;4396143;78;21036;-82
2022/02/14 01:51:34;;;;;;;133.83;45.83;;;;;;;-6.09;70.98;99136.83;4407756;79;21053;-82
2022/02/14 01:57:36;;;;;;;135.27;47.60;;;;;;;-6.05;71.38;99125.93;4395912;79;21576;-82
2022/02/14 02:03:38;;;;;;;151.70;51.43;;;;;;;-6.20;69.27;99129.88;4390690;79;20997;-82
2022/02/14 02:09:43;;;;;;;148.83;53.50;;;;;;;-6.38;70.99;99124.24;4399407;79;21029;-82
2022/02/14 02:15:45;;;;;;;132.30;50.43;;;;;;;-6.41;70.77;99112.27;4407259;79;21506;-82
2022/02/14 02:21:49;;;;;;;118.20;43.47;;;;;;;-6.41;70.83;99104.79;4409030;79;21505;-82
2022/02/14 02:27:51;;;;;;;118.47;43.50;;;;;;;-6.42;70.77;99100.54;4392038;79;21049;-83
2022/02/14 02:33:52;;;;;;;112.87;41.77;;;;;;;-6.43;71.51;99084.27;4385655;79;21063;-82
2022/02/14 02:39:55;;;;;;;114.13;37.07;;;;;;;-6.44;71.61;99082.68;4385786;79;21676;-82
2022/02/14 02:45:57;;;;;;;123.07;40.43;;;;;;;-6.48;71.57;99070.97;4390869;79;21020;-82
2022/02/14 02:52:04;;;;;;;110.37;37.07;;;;;;;-6.47;72.53;99071.48;4329882;80;20978;-82
2022/02/14 02:58:05;;;;;;;118.53;38.07;;;;;;;-6.36;72.77;99068.85;4375319;79;45351;-82
2022/02/14 03:04:09;;;;;;;102.90;35.87;;;;;;;-6.34;72.55;99063.52;4376356;80;21046;-81
2022/02/14 03:10:11;;;;;;;89.60;35.20;;;;;;;-6.38;72.54;99063.79;4383461;79;21021;-81
2022/02/14 03:16:15;;;;;;;103.27;38.17;;;;;;;-6.47;72.55;99055.50;4340469;80;21197;-82
2022/02/14 03:22:16;;;;;;;105.03;34.73;;;;;;;-6.47;71.60;99054.17;4329582;81;21066;-81
2022/02/14 03:28:17;;;;;;;110.20;38.27;;;;;;;-6.50;72.16;99061.91;4347139;81;21084;-82
2022/02/14 03:34:19;;;;;;;111.57;41.07;;;;;;;-6.58;73.18;99063.20;4327192;81;20982;-81
2022/02/14 03:40:20;;;;;;;117.23;41.27;;;;;;;-6.45;73.21;99062.45;4326300;80;20989;-82
2022/02/14 03:46:22;;;;;;;112.53;42.83;;;;;;;-6.42;72.98;99060.59;4355825;80;21068;-83
2022/02/14 03:52:23;;;;;;;102.17;36.37;;;;;;;-6.51;72.63;99058.95;4347331;81;21042;-82
2022/02/14 03:58:24;;;;;;;108.40;40.67;;;;;;;-6.52;73.80;99069.35;4318277;80;21000;-81
2022/02/14 04:04:26;;;;;;;114.73;43.53;;;;;;;-6.47;73.23;99066.70;4303150;80;39569;-81
2022/02/14 04:10:27;;;;;;;105.70;39.10;;;;;;;-6.54;72.96;99062.95;4357480;80;20991;-82
2022/02/14 04:16:29;;;;;;;107.17;39.03;;;;;;;-6.55;73.19;99060.03;4372984;80;21011;-81
2022/02/14 04:22:30;;;;;;;99.10;40.93;;;;;;;-6.52;73.02;99064.84;4355877;80;21062;-83
2022/02/14 04:28:32;;;;;;;113.03;45.10;;;;;;;-6.60;73.67;99059.20;4362243;80;21111;-82
2022/02/14 04:34:34;;;;;;;105.10;35.27;;;;;;;-6.59;73.73;99051.48;4383622;80;21097;-81
2022/02/14 04:40:39;;;;;;;100.50;37.83;;;;;;;-6.63;74.20;99049.09;4390124;80;21063;-81
2022/02/14 04:46:39;;;;;;;106.93;42.73;;;;;;;-6.57;74.57;99042.70;4302872;81;21004;-81
2022/02/14 04:52:41;;;;;;;102.20;37.70;;;;;;;-6.56;74.71;99042.44;4386372;80;21033;-83
2022/02/14 04:58:42;;;;;;;123.63;45.87;;;;;;;-6.63;74.74;99044.57;4395508;79;21030;-82
2022/02/14 05:04:43;;;;;;;122.60;46.37;;;;;;;-6.55;75.27;99040.59;4306939;81;21114;-82
2022/02/14 05:10:44;;;;;;;125.20;48.00;;;;;;;-6.45;74.92;99049.91;4374377;80;21516;-81
2022/02/14 05:16:45;;;;;;;112.90;45.17;;;;;;;-6.50;74.91;99048.04;4308406;80;21582;-81
2022/02/14 05:22:47;;;;;;;117.37;47.47;;;;;;;-6.54;74.93;99049.64;4291000;81;21501;-81
2022/02/14 05:28:54;;;;;;;127.00;47.60;;;;;;;-6.48;75.45;99056.31;4292206;80;33161;-81
2022/02/14 05:34:52;;;;;;;117.00;45.90;;;;;;;-6.44;75.19;99046.72;4295497;82;21074;-81
2022/02/14 05:40:53;;;;;;;112.77;45.77;;;;;;;-6.58;74.98;99046.44;4303554;82;21621;-80
2022/02/14 05:46:54;;;;;;;118.30;45.10;;;;;;;-6.66;75.06;99057.60;4303949;82;21066;-80
2022/02/14 05:52:55;;;;;;;116.77;45.90;;;;;;;-6.72;75.00;99062.09;4302639;82;21077;-81
2022/02/14 05:58:57;;;;;;;119.47;48.07;;;;;;;-6.78;75.41;99063.14;4303036;82;21589;-81
2022/02/14 06:04:59;;;;;;;136.77;52.20;;;;;;;-6.78;75.79;99055.16;4294415;82;21164;-81
2022/02/14 06:11:02;;;;;;;127.10;50.60;;;;;;;-6.75;75.48;99061.84;4298824;82;21070;-81
2022/02/14 06:17:03;;;;;;;130.87;48.60;;;;;;;-6.76;75.78;99058.89;4338426;80;21054;-80
2022/02/14 06:23:06;;;;;;;116.60;46.37;;;;;;;-6.74;75.63;99056.77;4370470;80;21003;-81
2022/02/14 06:29:07;;;;;;;125.37;49.10;;;;;;;-6.68;76.46;99057.05;4362474;80;21038;-81
2022/02/14 06:35:10;;;;;;;115.97;47.20;;;;;;;-6.52;76.18;99061.36;4379555;80;21019;-81
2022/02/14 06:41:12;;;;;;;118.07;45.67;;;;;;;-6.36;76.68;99055.53;4369000;80;20994;-81
2022/02/14 06:47:14;;;;;;;120.03;50.03;;;;;;;-6.29;76.37;99054.20;4367096;80;21416;-80
2022/02/14 06:53:15;;;;;;;118.20;50.23;;;;;;;-6.08;76.79;99053.17;4370701;80;21002;-81
2022/02/14 06:59:19;;;;;;;129.73;54.23;;;;;;;-5.90;77.21;99047.30;4373882;80;21407;-81
2022/02/14 07:05:22;;;;;;;138.13;57.97;;;;;;;-5.66;77.10;99054.19;4377905;80;21043;-81
2022/02/14 07:11:23;;;;;;;149.77;58.00;;;;;;;-5.45;77.59;99050.44;4378986;80;20982;-81
2022/02/14 07:17:25;;;;;;;174.30;67.97;;;;;;;-5.22;77.99;99049.84;4352620;80;20994;-81
2022/02/14 07:23:27;;;;;;;192.77;82.20;;;;;;;-4.93;77.82;99049.45;4356463;80;20983;-81
2022/02/14 07:29:28;;;;;;;163.93;68.43;;;;;;;-4.49;78.29;99044.20;4361518;80;21523;-82
2022/02/14 07:35:29;;;;;;;177.80;79.97;;;;;;;-3.86;78.59;99037.84;4350370;80;21261;-82
2022/02/14 07:41:32;;;;;;;151.70;71.23;;;;;;;-3.22;79.41;99025.72;4350868;80;21527;-81
2022/02/14 07:47:36;;;;;;;245.50;116.67;;;;;;;-2.44;78.70;99030.63;4357164;80;21042;-82
2022/02/14 07:53:37;;;;;;;153.80;68.83;;;;;;;-1.69;78.20;99028.92;4354841;80;21017;-82
2022/02/14 07:59:39;;;;;;;159.87;69.50;;;;;;;-1.10;77.38;99027.33;4357234;80;21518;-82
2022/02/14 08:05:40;;;;;;;138.33;61.27;;;;;;;-0.53;77.18;99030.17;4356300;80;21021;-82
2022/02/14 08:11:41;;;;;;;158.60;67.87;;;;;;;0.06;76.98;99031.00;4361952;80;20916;-83
2022/02/14 08:17:43;;;;;;;150.63;65.27;;;;;;;0.72;76.57;99026.91;4353564;80;21582;-82
2022/02/14 08:23:44;;;;;;;139.45;65.45;;;;;;;1.15;75.60;99022.48;4365463;80;21061;-84
2022/02/14 08:29:46;;;;;;;138.10;62.83;;;;;;;1.90;75.90;99020.23;4362012;80;21042;-82
2022/02/14 08:35:48;;;;;;;126.65;58.52;;;;;;;2.76;75.37;99014.94;4365694;80;20978;-83
2022/02/14 08:41:49;;;;;;;122.05;56.13;;;;;;;3.61;74.74;99009.67;4360509;80;21002;-84
2022/02/14 08:47:51;;;;;;;115.90;52.13;;;;;;;4.49;73.59;99002.08;4367812;80;21701;-84
2022/02/14 08:53:54;;;;;;;114.17;54.10;;;;;;;5.20;71.90;98990.31;4377101;80;21055;-85
2022/02/14 09:00:05;;;;;;;108.40;53.68;;;;;;;5.83;71.98;98993.09;4365917;80;20952;-84
2022/02/14 09:06:10;;;;;;;109.92;50.73;;;;;;;6.56;71.32;98988.16;4372133;80;21405;-84
2022/02/14 09:12:19;;;;;;;94.20;44.75;;;;;;;7.49;70.92;98977.25;4374859;80;20932;-85
2022/02/14 09:18:24;;;;;;;89.40;43.78;;;;;;;8.33;70.59;98973.42;4357762;80;21045;-85
2022/02/14 09:24:32;;;;;;;75.12;38.92;;;;;;;9.12;69.92;98969.77;4368803;80;21033;-86
2022/02/14 09:30:39;;;;;;;75.83;36.05;;;;;;;9.71;68.55;98965.78;4368868;80;21004;-86
2022/02/14 09:36:40;;;;;;;50.10;26.45;;;;;;;10.19;68.35;98957.27;4368753;80;21995;-87
2022/02/14 09:42:42;;;;;;;72.95;33.20;;;;;;;10.58;67.98;98957.12;4372400;80;21479;-88
2022/02/14 09:48:43;;;;;;;57.75;28.02;;;;;;;11.29;67.82;98953.06;4371489;80;21580;-88
2022/02/14 09:54:45;;;;;;;37.48;22.07;;;;;;;11.99;66.09;98948.83;4379232;80;21501;-89
2022/02/14 10:00:46;;;;;;;39.78;20.25;;;;;;;12.51;65.47;98942.72;4379666;80;21033;-88
2022/02/14 10:06:48;;;;;;;28.92;17.00;;;;;;;13.12;65.54;98938.14;4367224;80;21026;-86
2022/02/14 10:12:55;;;;;;;29.25;14.95;;;;;;;12.80;63.59;98932.59;4353308;80;21352;-89
2022/02/14 10:18:57;;;;;;;22.62;13.60;;;;;;;12.98;63.35;98944.97;4351441;80;21105;-88
2022/02/14 10:25:03;;;;;;;17.55;11.05;;;;;;;13.16;62.43;98938.33;4338131;80;21062;-89
2022/02/14 10:31:08;;;;;;;15.63;9.55;;;;;;;13.35;59.76;98933.02;4244720;82;21058;-89
2022/02/14 10:37:13;;;;;;;14.85;9.28;;;;;;;13.48;57.96;98927.31;4244644;82;21051;-89
2022/02/14 10:43:27;;;;;;;13.30;8.83;;;;;;;13.55;58.34;98912.95;4204863;83;21582;-89
2022/02/14 10:49:28;;;;;;;14.47;9.85;;;;;;;13.70;57.49;98895.83;4193292;83;20996;-90
2022/02/14 10:55:37;;;;;;;14.38;8.98;;;;;;;13.91;55.14;98894.36;4172775;83;21677;-90
2022/02/14 11:01:39;;;;;;;13.72;9.15;;;;;;;13.70;50.85;98889.72;4197581;83;21583;-89
2022/02/14 11:07:42;;;;;;;12.63;8.03;;;;;;;12.92;46.98;98888.84;4201461;83;21050;-89
2022/02/14 11:13:45;;;;;;;15.78;9.30;;;;;;;12.64;44.61;98881.36;4178437;83;21110;-89
2022/02/14 11:19:48;;;;;;;13.05;8.43;;;;;;;12.43;49.52;98875.85;4222887;83;21047;-88
2022/02/14 11:26:19;;;;;;;13.00;8.90;;;;;;;12.53;48.90;98874.48;4210799;83;20993;-90
2022/02/14 11:32:29;;;;;;;14.78;9.58;;;;;;;12.95;50.19;98871.58;4226126;83;61392;-89
2022/02/14 11:38:53;;;;;;;18.30;11.35;;;;;;;13.05;49.30;98861.17;4337139;80;21054;-90
2022/02/14 11:45:13;;;;;;;17.73;10.93;;;;;;;13.16;46.09;98865.50;4333858;80;21163;-89
2022/02/14 11:51:17;;;;;;;21.10;11.10;;;;;;;12.95;47.46;98846.23;4336845;80;21119;-89
2022/02/14 11:57:33;;;;;;;20.05;11.63;;;;;;;12.78;47.64;98848.41;4334136;80;21022;-89
2022/02/14 12:03:34;;;;;;;21.20;12.63;;;;;;;12.62;47.21;98850.78;4318655;81;21063;-89
2022/02/14 12:09:59;;;;;;;19.90;12.23;;;;;;;12.20;46.07;98848.73;4407674;78;21037;-90
2022/02/14 12:22:05;;;;;;;19.82;11.33;;;;;;;11.32;43.98;98821.56;4404690;79;21031;-89
2022/02/14 12:28:09;;;;;;;17.42;8.40;;;;;;;11.17;45.67;98815.78;4411453;79;21094;-90
2022/02/14 12:34:10;;;;;;;13.28;8.20;;;;;;;11.12;45.80;98821.61;4406935;79;21466;-90
2022/02/14 12:40:12;;;;;;;13.88;7.90;;;;;;;10.95;44.79;98801.17;4404199;79;20967;-89
2022/02/14 12:46:20;;;;;;;18.32;8.90;;;;;;;10.86;45.21;98802.67;4404033;79;21067;-89
2022/02/14 12:52:22;;;;;;;17.57;10.00;;;;;;;10.62;44.19;98801.90;4401849;79;21016;-90
2022/02/14 12:58:24;;;;;;;13.83;8.75;;;;;;;10.55;44.65;98795.02;4299933;81;21044;-92
2022/02/14 13:04:29;;;;;;;18.90;9.40;;;;;;;10.58;44.80;98786.84;4293875;80;21410;-90
2022/02/14 13:10:31;;;;;;;17.57;9.70;;;;;;;10.67;44.70;98779.08;4363482;81;21297;-91
2022/02/14 13:16:33;;;;;;;13.78;8.60;;;;;;;10.56;43.06;98778.79;4353183;81;21069;-90
2022/02/14 13:22:38;;;;;;;13.83;8.83;;;;;;;10.38;43.78;98764.19;4335803;80;21574;-92
2022/02/14 13:28:41;;;;;;;15.58;9.20;;;;;;;10.43;43.86;98764.61;4337390;80;21575;-91
2022/02/14 13:35:05;;;;;;;15.15;9.40;;;;;;;10.36;43.76;98757.73;4342549;80;21026;-89
2022/02/14 13:41:10;;;;;;;16.25;8.73;;;;;;;10.29;43.17;98750.82;4307037;81;21041;-89
2022/02/14 13:47:18;;;;;;;14.68;8.08;;;;;;;10.25;43.95;98742.38;4314608;80;21039;-91
2022/02/14 13:53:30;;;;;;;13.03;7.97;;;;;;;10.15;43.88;98739.76;4346179;80;20968;-90
2022/02/14 13:59:34;;;;;;;14.93;8.35;;;;;;;10.05;44.23;98744.55;4345777;80;21077;-90
2022/02/14 14:05:39;;;;;;;12.78;7.83;;;;;;;9.91;44.30;98739.52;4337361;80;21017;-90
2022/02/14 14:11:42;;;;;;;11.43;6.50;;;;;;;9.77;43.83;98740.17;4341598;80;21018;-90
2022/02/14 14:17:43;;;;;;;6.90;3.80;;;;;;;9.70;42.30;98733.25;4341024;80;21053;-90
2022/02/14 14:23:46;;;;;;;5.62;3.40;;;;;;;9.63;40.88;98726.36;4361549;80;21031;-91
2022/02/14 14:29:49;;;;;;;5.87;3.60;;;;;;;9.48;40.63;98715.05;4363917;80;21094;-90
2022/02/14 14:35:52;;;;;;;8.90;3.60;;;;;;;9.50;38.88;98710.01;4363111;80;21111;-90
2022/02/14 14:41:54;;;;;;;11.73;3.80;;;;;;;9.43;39.06;98707.19;4366406;80;21351;-91
2022/02/14 14:47:55;;;;;;;8.70;4.00;;;;;;;9.20;38.51;98701.88;4355606;80;21564;-91
2022/02/14 14:54:03;;;;;;;8.53;4.45;;;;;;;8.97;39.37;98714.06;4363464;80;21601;-90
2022/02/14 15:00:05;;;;;;;9.03;3.72;;;;;;;8.67;40.53;98715.98;4362991;80;21032;-91
2022/02/14 15:06:16;;;;;;;7.17;3.95;;;;;;;8.43;41.19;98719.13;4360626;80;21102;-91
2022/02/14 15:12:12;;;;;;;9.28;4.50;;;;;;;8.35;40.43;98708.70;4358561;80;21109;-91
2022/02/14 15:18:13;;;;;;;7.65;3.92;;;;;;;8.33;40.32;98706.91;4325047;80;21312;-90
2022/02/14 15:24:18;;;;;;;9.45;5.55;;;;;;;8.19;40.26;98708.02;4288076;81;21034;-91
2022/02/14 15:30:19;;;;;;;9.13;5.17;;;;;;;8.11;40.31;98696.81;4283286;81;21453;-90
2022/02/14 15:36:23;;;;;;;9.33;4.22;;;;;;;7.90;40.90;98691.80;4242308;80;111250;-89
2022/02/14 15:42:25;;;;;;;10.03;4.80;;;;;;;7.83;41.16;98689.51;4274964;82;21087;-89
2022/02/14 15:48:28;;;;;;;11.15;5.55;;;;;;;7.72;41.28;98685.84;4305814;82;21155;-90
2022/02/14 15:54:29;;;;;;;9.38;5.40;;;;;;;7.42;42.29;98673.42;4280280;82;21081;-92
2022/02/14 16:00:32;;;;;;;10.25;4.97;;;;;;;7.21;42.60;98683.13;4250422;82;21011;-89
2022/02/14 16:06:34;;;;;;;10.53;4.67;;;;;;;7.12;42.83;98685.30;4254939;82;21900;-89
2022/02/14 16:12:37;;;;;;;11.65;5.72;;;;;;;7.11;42.70;98687.22;4256728;82;21033;-90
2022/02/14 16:18:38;;;;;;;11.53;5.47;;;;;;;7.00;43.02;98693.62;4286425;80;21553;-90
2022/02/14 16:24:40;;;;;;;15.83;6.47;;;;;;;6.80;43.34;98695.53;4358028;80;21074;-90
2022/02/14 16:30:42;;;;;;;12.18;6.25;;;;;;;6.67;43.46;98691.95;4354519;80;21046;-89
2022/02/14 16:36:43;;;;;;;15.28;5.97;;;;;;;6.64;43.76;98689.94;4370710;80;22047;-89
2022/02/14 16:42:48;;;;;;;14.10;6.30;;;;;;;6.48;44.01;98689.98;4292040;82;21056;-88
2022/02/14 16:48:50;;;;;;;20.15;9.70;;;;;;;6.36;44.28;98689.52;4421242;80;21098;-89
2022/02/14 16:54:53;;;;;;;49.90;23.83;;;;;;;6.29;44.52;98689.37;4392676;80;21364;-89
2022/02/14 17:00:54;;;;;;;45.58;20.57;;;;;;;6.29;44.57;98685.30;4418094;80;20988;-89
2022/02/14 17:06:56;;;;;;;37.50;18.07;;;;;;;5.95;44.90;98691.45;4408297;80;21101;-89
2022/02/14 17:12:57;;;;;;;27.62;12.73;;;;;;;5.93;45.15;98691.60;4380775;80;21081;-88
2022/02/14 17:18:58;;;;;;;22.02;11.95;;;;;;;5.90;45.77;98687.64;4368331;80;21064;-89
2022/02/14 17:25:00;;;;;;;21.17;10.43;;;;;;;5.90;45.86;98702.58;4340951;80;22465;-90
2022/02/14 17:31:01;;;;;;;20.65;11.35;;;;;;;5.62;46.16;98701.84;4354521;80;21089;-89
2022/02/14 17:37:04;;;;;;;26.68;14.10;;;;;;;5.29;46.53;98696.51;4352003;80;21343;-90
2022/02/14 17:43:05;;;;;;;39.70;18.82;;;;;;;5.02;46.81;98693.23;4363486;80;21024;-89
2022/02/14 17:49:07;;;;;;;52.70;23.98;;;;;;;4.72;47.11;98701.70;4342193;80;21509;-89
